createdAt,value
2022-07-31T00:04:49.881Z,100688.38
2022-07-31T00:09:54.421Z,100687.00
2022-07-31T00:14:58.564Z,100681.22
2022-07-31T00:20:01.159Z,100683.38
2022-07-31T00:25:03.826Z,100682.38
2022-07-31T00:30:09.257Z,100678.00
2022-07-31T00:35:13.960Z,100677.38
2022-07-31T00:40:17.887Z,100676.28
2022-07-31T00:45:22.228Z,100674.31
2022-07-31T00:50:32.102Z,100676.25
2022-07-31T00:55:41.744Z,100683.06
2022-07-31T01:00:55.517Z,100696.94
2022-07-31T01:05:58.109Z,100691.91
2022-07-31T01:11:06.424Z,100692.84
2022-07-31T01:16:12.209Z,100688.03
2022-07-31T01:21:20.972Z,100678.06
2022-07-31T01:26:35.439Z,100683.56
2022-07-31T01:31:46.317Z,100686.59
2022-07-31T01:36:58.007Z,100684.53
2022-07-31T01:42:05.653Z,100686.94
2022-07-31T01:47:10.927Z,100688.84
2022-07-31T01:52:15.056Z,100682.50
2022-07-31T01:57:18.732Z,100687.94
2022-07-31T02:02:24.124Z,100678.44
2022-07-31T02:07:29.571Z,100678.38
2022-07-31T02:12:34.113Z,100674.09
2022-07-31T02:17:39.367Z,100676.38
2022-07-31T02:22:42.161Z,100669.81
2022-07-31T02:27:53.581Z,100667.31
2022-07-31T02:33:04.465Z,100660.56
2022-07-31T02:38:08.492Z,100660.56
2022-07-31T02:43:26.648Z,100670.09
2022-07-31T02:48:31.913Z,100659.66
2022-07-31T02:53:35.208Z,100661.66
2022-07-31T02:58:41.784Z,100667.41
2022-07-31T03:03:45.879Z,100666.09
2022-07-31T03:08:48.427Z,100659.28
2022-07-31T03:13:53.816Z,100657.44
2022-07-31T03:18:58.600Z,100636.47
2022-07-31T03:24:01.852Z,100646.47
2022-07-31T03:29:05.651Z,100638.31
2022-07-31T03:34:29.473Z,100652.94
2022-07-31T03:39:31.948Z,100647.41
2022-07-31T03:44:35.282Z,100640.88
2022-07-31T03:49:40.724Z,100644.09
2022-07-31T03:54:43.640Z,100634.53
2022-07-31T03:59:48.258Z,100639.91
2022-07-31T04:04:52.599Z,100639.34
2022-07-31T04:09:55.156Z,100639.81
2022-07-31T04:14:57.657Z,100644.38
2022-07-31T04:20:02.330Z,100647.88
2022-07-31T04:25:09.306Z,100642.97
2022-07-31T04:30:13.018Z,100649.97
2022-07-31T04:35:16.848Z,100652.22
2022-07-31T04:40:19.409Z,100650.00
2022-07-31T04:45:21.990Z,100656.56
2022-07-31T04:50:26.228Z,100671.38
2022-07-31T04:55:28.704Z,100660.03
2022-07-31T05:00:31.235Z,100661.66
2022-07-31T05:05:35.102Z,100672.69
2022-07-31T05:10:54.502Z,100674.44
2022-07-31T05:15:57.876Z,100664.38
2022-07-31T05:21:01.644Z,100667.19
2022-07-31T05:26:05.160Z,100672.47
2022-07-31T05:31:09.236Z,100668.81
2022-07-31T05:36:13.501Z,100667.47
2022-07-31T05:41:19.105Z,100659.88
2022-07-31T05:46:21.642Z,100666.53
2022-07-31T05:51:25.448Z,100672.13
2022-07-31T05:56:28.164Z,100673.44
2022-07-31T06:01:30.786Z,100676.19
2022-07-31T06:06:34.714Z,100672.72
2022-07-31T06:11:37.235Z,100683.31
2022-07-31T06:16:39.686Z,100689.19
2022-07-31T06:21:43.499Z,100689.06
2022-07-31T06:26:45.971Z,100688.34
2022-07-31T06:31:49.167Z,100684.59
2022-07-31T06:36:53.118Z,100696.28
2022-07-31T06:41:55.654Z,100695.44
2022-07-31T06:46:58.126Z,100700.06
2022-07-31T06:52:04.968Z,100693.50
2022-07-31T06:57:08.663Z,100693.34
2022-07-31T07:02:11.211Z,100689.59
2022-07-31T07:07:15.061Z,100689.41
2022-07-31T07:12:17.553Z,100686.88
2022-07-31T07:17:20.168Z,100687.06
2022-07-31T07:22:31.266Z,100681.63
2022-07-31T07:27:34.747Z,100690.28
2022-07-31T07:32:38.488Z,100676.34
2022-07-31T07:37:42.744Z,100666.03
2022-07-31T07:42:45.296Z,100666.81
2022-07-31T07:48:05.986Z,100678.38
2022-07-31T07:53:12.904Z,100672.00
2022-07-31T07:58:15.408Z,100657.19
2022-07-31T08:03:48.968Z,100659.31
2022-07-31T08:08:41.792Z,100648.56
2022-07-31T08:13:49.362Z,100643.81
2022-07-31T08:18:54.367Z,100643.72
2022-07-31T08:23:58.240Z,100647.41
2022-07-31T08:29:00.623Z,100638.78
2022-07-31T08:34:07.742Z,100628.75
2022-07-31T08:39:17.698Z,100626.13
2022-07-31T08:44:30.899Z,100629.06
2022-07-31T08:49:37.850Z,100623.75
2022-07-31T08:54:44.455Z,100617.50
2022-07-31T08:59:47.142Z,100617.34
2022-07-31T09:04:52.635Z,100616.69
2022-07-31T09:09:57.147Z,100613.31
2022-07-31T09:15:00.233Z,100603.94
2022-07-31T09:20:03.373Z,100603.72
2022-07-31T09:25:15.902Z,100599.91
2022-07-31T09:30:18.624Z,100604.59
2022-07-31T09:35:21.239Z,100594.91
2022-07-31T09:40:35.585Z,100588.94
2022-07-31T09:45:48.173Z,100583.88
2022-07-31T09:50:54.821Z,100587.53
2022-07-31T09:55:59.754Z,100582.03
2022-07-31T10:01:03.149Z,100578.06
2022-07-31T10:06:07.006Z,100571.16
2022-07-31T10:11:16.789Z,100558.38
2022-07-31T10:16:22.374Z,100551.56
2022-07-31T10:21:30.268Z,100556.38
2022-07-31T10:26:59.189Z,100554.88
2022-07-31T10:31:57.793Z,100551.03
2022-07-31T10:37:11.196Z,100535.00
2022-07-31T10:42:27.531Z,100547.06
2022-07-31T10:47:30.009Z,100521.72
2022-07-31T10:52:34.767Z,100527.81
2022-07-31T10:57:56.902Z,100522.00
2022-07-31T11:03:00.230Z,100518.13
2022-07-31T11:08:05.436Z,100513.09
2022-07-31T11:13:11.543Z,100497.81
2022-07-31T11:18:16.599Z,100488.72
2022-07-31T11:23:31.130Z,100489.69
2022-07-31T11:28:35.877Z,100504.06
2022-07-31T11:33:43.124Z,100485.06
2022-07-31T11:38:47.664Z,100487.22
2022-07-31T11:43:52.654Z,100487.97
2022-07-31T11:48:56.146Z,100475.56
2022-07-31T11:53:59.237Z,100473.19
2022-07-31T11:59:03.152Z,100469.66
2022-07-31T12:04:08.759Z,100463.19
2022-07-31T12:10:00.375Z,100468.97
2022-07-31T12:14:37.958Z,100452.38
2022-07-31T12:19:40.410Z,100448.16
2022-07-31T12:24:44.070Z,100440.88
2022-07-31T12:29:48.363Z,100422.75
2022-07-31T12:35:02.540Z,100435.38
2022-07-31T12:40:06.075Z,100431.53
2022-07-31T12:45:19.473Z,100427.88
2022-07-31T12:50:23.614Z,100410.16
2022-07-31T12:55:26.338Z,100404.66
2022-07-31T13:00:30.237Z,100397.50
2022-07-31T13:05:32.859Z,100382.63
2022-07-31T13:10:35.737Z,100379.91
2022-07-31T13:15:39.552Z,100375.44
2022-07-31T13:20:42.057Z,100378.69
2022-07-31T13:25:44.542Z,100359.72
2022-07-31T13:30:53.242Z,100345.50
2022-07-31T13:35:57.509Z,100357.50
2022-07-31T13:41:17.822Z,100349.06
2022-07-31T13:46:22.703Z,100343.91
2022-07-31T13:51:28.843Z,100350.19
2022-07-31T13:56:40.381Z,100339.28
2022-07-31T14:02:03.359Z,100337.78
2022-07-31T14:07:09.099Z,100331.66
2022-07-31T14:12:11.987Z,100333.06
2022-07-31T14:17:19.199Z,100331.91
2022-07-31T14:22:21.701Z,100321.78
2022-07-31T14:27:24.188Z,100324.03
2022-07-31T14:32:30.440Z,100326.19
2022-07-31T14:37:32.962Z,100320.16
2022-07-31T14:42:36.084Z,100321.19
2022-07-31T14:47:39.942Z,100317.66
2022-07-31T14:52:42.612Z,100316.13
2022-07-31T14:57:45.323Z,100309.47
2022-07-31T15:02:49.556Z,100304.47
2022-07-31T15:07:52.393Z,100295.38
2022-07-31T15:12:55.581Z,100292.47
2022-07-31T15:17:59.574Z,100297.53
2022-07-31T15:23:02.582Z,100302.22
2022-07-31T15:28:05.817Z,100298.81
2022-07-31T15:33:09.712Z,100294.75
2022-07-31T15:38:12.315Z,100311.94
2022-07-31T15:43:14.829Z,100301.25
2022-07-31T15:48:18.654Z,100319.78
2022-07-31T15:53:21.105Z,100316.19
2022-07-31T15:58:23.665Z,100313.00
2022-07-31T16:03:50.802Z,100310.09
2022-07-31T16:08:54.303Z,100312.94
2022-07-31T16:13:57.026Z,100310.66
2022-07-31T16:19:00.833Z,100297.81
2022-07-31T16:24:03.310Z,100290.72
2022-07-31T16:29:05.776Z,100283.59
2022-07-31T16:34:13.641Z,100286.22
2022-07-31T16:39:22.130Z,100274.91
2022-07-31T16:44:24.907Z,100277.94
2022-07-31T16:49:36.900Z,100277.94
2022-07-31T16:54:40.157Z,100274.09
2022-07-31T16:59:56.925Z,100269.16
2022-07-31T17:05:01.519Z,100261.13
2022-07-31T17:10:04.314Z,100262.72
2022-07-31T17:15:07.715Z,100263.53
2022-07-31T17:20:12.382Z,100269.22
2022-07-31T17:25:18.402Z,100264.00
2022-07-31T17:30:20.844Z,100263.00
2022-07-31T17:35:24.718Z,100258.19
2022-07-31T17:40:42.471Z,100261.44
2022-07-31T17:46:05.291Z,100262.22
2022-07-31T17:51:10.538Z,100265.00
2022-07-31T17:56:13.458Z,100264.19
2022-07-31T18:01:16.045Z,100266.88
2022-07-31T18:06:19.939Z,100268.13
2022-07-31T18:11:22.774Z,100260.22
2022-07-31T18:16:25.319Z,100269.41
2022-07-31T18:21:29.227Z,100269.41
2022-07-31T18:26:31.952Z,100258.78
2022-07-31T18:31:35.887Z,100258.44
2022-07-31T18:36:41.111Z,100266.19
2022-07-31T18:41:48.808Z,100269.78
2022-07-31T18:46:53.008Z,100275.03
2022-07-31T18:51:56.882Z,100285.00
2022-07-31T18:56:59.565Z,100299.81
2022-07-31T19:02:03.212Z,100294.97
2022-07-31T19:07:07.353Z,100298.16
2022-07-31T19:12:10.444Z,100301.53
2022-07-31T19:17:13.389Z,100301.13
2022-07-31T19:22:22.503Z,100316.69
2022-07-31T19:27:48.484Z,100319.94
2022-07-31T19:32:48.115Z,100309.94
2022-07-31T19:37:58.044Z,100315.56
2022-07-31T19:43:00.582Z,100304.13
2022-07-31T19:48:03.214Z,100298.59
2022-07-31T19:53:07.383Z,100298.81
2022-07-31T19:58:09.957Z,100295.31
2022-07-31T20:03:13.910Z,100313.63
2022-07-31T20:08:17.802Z,100313.81
2022-07-31T20:13:20.723Z,100312.97
2022-07-31T20:18:27.226Z,100315.75
2022-07-31T20:23:34.424Z,100319.41
2022-07-31T20:28:37.537Z,100332.34
2022-07-31T20:33:40.047Z,100327.84
2022-07-31T20:38:43.974Z,100313.25
2022-07-31T20:43:46.473Z,100323.34
2022-07-31T20:48:50.009Z,100318.56
2022-07-31T20:53:54.219Z,100333.22
2022-07-31T20:58:56.838Z,100323.66
2022-07-31T21:03:59.384Z,100319.78
2022-07-31T21:09:04.490Z,100314.06
2022-07-31T21:14:07.204Z,100303.91
2022-07-31T21:19:10.361Z,100318.72
2022-07-31T21:24:14.840Z,100332.28
2022-07-31T21:29:17.848Z,100324.66
2022-07-31T21:34:20.956Z,100318.84
2022-07-31T21:39:25.893Z,100293.09
2022-07-31T21:44:28.723Z,100284.25
2022-07-31T21:49:33.686Z,100285.44
2022-07-31T21:54:37.544Z,100291.31
2022-07-31T21:59:39.904Z,100291.59
2022-07-31T22:04:56.389Z,100295.13
2022-07-31T22:10:00.603Z,100291.53
2022-07-31T22:15:03.103Z,100293.78
2022-07-31T22:20:07.619Z,100291.00
2022-07-31T22:25:13.395Z,100293.69
2022-07-31T22:30:17.177Z,100289.09
2022-07-31T22:35:20.130Z,100283.56
2022-07-31T22:40:25.174Z,100276.09
2022-07-31T22:45:27.864Z,100269.00
2022-07-31T22:50:30.756Z,100275.09
2022-07-31T22:55:35.200Z,100278.38
2022-07-31T23:00:38.465Z,100283.28
2022-07-31T23:06:02.493Z,100288.38
2022-07-31T23:11:04.934Z,100279.13
2022-07-31T23:16:07.338Z,100278.94
2022-07-31T23:21:09.833Z,100274.66
2022-07-31T23:26:14.610Z,100277.72
2022-07-31T23:31:17.481Z,100270.34
2022-07-31T23:36:20.259Z,100273.31
2022-07-31T23:41:38.088Z,100272.16
2022-07-31T23:46:40.663Z,100273.72
2022-07-31T23:51:43.206Z,100271.22
2022-07-31T23:56:46.987Z,100274.91
